FIN242 EFHK-SBGR
Flight info
| Callsign | FIN242 |
|---|---|
| Flight time | N/A |
| Altitude | 36000 |
| Route | NUNTO Y369 REKDO DCT ROGMI DCT BEDOS DCT LASGI N872 PAM L980 IDRID M40 NILON L610 GILDA L620 SAM/N0481F370 M195 LORKU DCT ERCOZ DCT KOLEK DCT KORUL DCT RIMTU DCT XERES DCT SOPOP DCT TABAX DCT TELMU/N0482F390 Q205 NELSO N741 ERONI/N0482F400 N741 EDUMO UN741 MERUD/N0481F410 UN741 NANIK/N0479F400 UN741 ERUGU UZ61 REDAD UZ21 VUNOX |
| Aircraft | A359/H-SDE2E3GHIJ1J3J4J5LM1ORWXY/LB1D1 |
Departure
| Time | N/A |
|---|---|
| Airport | Helsinki Vantaa Airport (EFHK) |
Arrival
| Time | 2026-05-01 08:26 |
|---|---|
| Airport | São Paulo/Guarulhos–Governor André Franco Montoro International Airport (SBGR) |
| Time | Latitude | Longitude | Altitude | Speed | Heading |
|---|---|---|---|---|---|
| 2026-05-01 07:33 | -18.74063 | -43.69462 | 41125 ft | 472 kts | 209° |
| 2026-05-01 07:34 | -18.82745 | -43.74399 | 41122 ft | 472 kts | 209° |
| 2026-05-01 07:35 | -18.88531 | -43.77692 | 41122 ft | 472 kts | 209° |
| 2026-05-01 07:35 | -18.94265 | -43.80958 | 41121 ft | 471 kts | 210° |
| 2026-05-01 07:36 | -19.00040 | -43.84250 | 41116 ft | 471 kts | 210° |
| 2026-05-01 07:36 | -19.05814 | -43.87544 | 41116 ft | 471 kts | 210° |
| 2026-05-01 07:37 | -19.14465 | -43.92484 | 41113 ft | 471 kts | 210° |
| 2026-05-01 07:37 | -19.20220 | -43.95774 | 41113 ft | 470 kts | 210° |
| 2026-05-01 07:38 | -19.25983 | -43.99071 | 41117 ft | 470 kts | 210° |
| 2026-05-01 07:39 | -19.34621 | -44.04017 | 41133 ft | 470 kts | 210° |
| 2026-05-01 07:39 | -19.43253 | -44.08967 | 41149 ft | 470 kts | 210° |
| 2026-05-01 07:40 | -19.48972 | -44.12249 | 41157 ft | 470 kts | 210° |
| 2026-05-01 07:40 | -19.54735 | -44.15560 | 41159 ft | 470 kts | 210° |
| 2026-05-01 07:41 | -19.60501 | -44.18874 | 41156 ft | 470 kts | 210° |
| 2026-05-01 07:42 | -19.69102 | -44.23824 | 41143 ft | 470 kts | 210° |
| 2026-05-01 07:42 | -19.74855 | -44.27138 | 41131 ft | 470 kts | 210° |
| 2026-05-01 07:43 | -19.80610 | -44.30456 | 41125 ft | 470 kts | 210° |
| 2026-05-01 07:43 | -19.89240 | -44.35437 | 41125 ft | 470 kts | 210° |
| 2026-05-01 07:44 | -20.00692 | -44.42056 | 41126 ft | 470 kts | 211° |
| 2026-05-01 07:45 | -20.06441 | -44.45383 | 41129 ft | 469 kts | 211° |
| 2026-05-01 07:45 | -20.12179 | -44.48719 | 41128 ft | 469 kts | 212° |
| 2026-05-01 07:46 | -20.17574 | -44.52592 | 41129 ft | 467 kts | 218° |
| 2026-05-01 07:47 | -20.25417 | -44.58679 | 41130 ft | 467 kts | 218° |
| 2026-05-01 07:47 | -20.30646 | -44.62773 | 41131 ft | 466 kts | 218° |
| 2026-05-01 07:48 | -20.38497 | -44.68903 | 41132 ft | 466 kts | 218° |
| 2026-05-01 07:48 | -20.43734 | -44.72990 | 41132 ft | 466 kts | 218° |
| 2026-05-01 07:49 | -20.50698 | -44.78433 | 41131 ft | 466 kts | 218° |
| 2026-05-01 07:50 | -20.55928 | -44.82519 | 41134 ft | 465 kts | 218° |
| 2026-05-01 07:50 | -20.63765 | -44.88639 | 41134 ft | 465 kts | 218° |
| 2026-05-01 07:51 | -20.69000 | -44.92734 | 41131 ft | 465 kts | 219° |
| 2026-05-01 07:52 | -20.76806 | -44.98848 | 41134 ft | 465 kts | 219° |
| 2026-05-01 07:52 | -20.82023 | -45.02950 | 41131 ft | 465 kts | 219° |
| 2026-05-01 07:53 | -20.89837 | -45.09108 | 41124 ft | 465 kts | 219° |
| 2026-05-01 07:53 | -20.95041 | -45.13213 | 41127 ft | 465 kts | 219° |
| 2026-05-01 07:55 | -21.08019 | -45.23438 | 41121 ft | 464 kts | 219° |
| 2026-05-01 07:56 | -21.20995 | -45.33689 | 41119 ft | 463 kts | 219° |
| 2026-05-01 07:57 | -21.28754 | -45.39832 | 41120 ft | 462 kts | 219° |
| 2026-05-01 07:58 | -21.39091 | -45.48028 | 41118 ft | 461 kts | 219° |
| 2026-05-01 07:59 | -21.49374 | -45.56196 | 41116 ft | 460 kts | 220° |
| 2026-05-01 08:00 | -21.64736 | -45.68269 | 38658 ft | 456 kts | 219° |
| 2026-05-01 08:01 | -21.72485 | -45.74365 | 36276 ft | 460 kts | 219° |
| 2026-05-01 08:01 | -21.75034 | -45.76372 | 35337 ft | 457 kts | 219° |
| 2026-05-01 08:01 | -21.77590 | -45.78384 | 34410 ft | 454 kts | 219° |
| 2026-05-01 08:02 | -21.82644 | -45.82366 | 32549 ft | 445 kts | 219° |
| 2026-05-01 08:02 | -21.85124 | -45.84322 | 31682 ft | 439 kts | 219° |
| 2026-05-01 08:03 | -21.90009 | -45.88179 | 29988 ft | 430 kts | 219° |
| 2026-05-01 08:03 | -21.92406 | -45.90073 | 29050 ft | 425 kts | 219° |
| 2026-05-01 08:03 | -21.97116 | -45.93797 | 27309 ft | 415 kts | 218° |
| 2026-05-01 08:04 | -22.01726 | -45.97446 | 26045 ft | 407 kts | 218° |
| 2026-05-01 08:04 | -22.06266 | -46.01041 | 25573 ft | 404 kts | 218° |
| 2026-05-01 08:05 | -22.10758 | -46.04603 | 25141 ft | 402 kts | 218° |
| 2026-05-01 08:05 | -22.13005 | -46.06385 | 24911 ft | 401 kts | 218° |
| 2026-05-01 08:05 | -22.15242 | -46.08160 | 24686 ft | 399 kts | 218° |
| 2026-05-01 08:06 | -22.19716 | -46.11718 | 24250 ft | 397 kts | 218° |
| 2026-05-01 08:06 | -22.24132 | -46.15225 | 23813 ft | 394 kts | 218° |
| 2026-05-01 08:07 | -22.28502 | -46.18698 | 22896 ft | 388 kts | 218° |
| 2026-05-01 08:07 | -22.33174 | -46.21498 | 21886 ft | 388 kts | 195° |
| 2026-05-01 08:08 | -22.35829 | -46.22008 | 21422 ft | 388 kts | 190° |
| 2026-05-01 08:08 | -22.41175 | -46.22799 | 20495 ft | 386 kts | 190° |
| 2026-05-01 08:09 | -22.46458 | -46.23601 | 19575 ft | 381 kts | 190° |
| 2026-05-01 08:09 | -22.49046 | -46.23998 | 19124 ft | 378 kts | 190° |
| 2026-05-01 08:09 | -22.51642 | -46.24399 | 18673 ft | 376 kts | 190° |
| 2026-05-01 08:10 | -22.56778 | -46.25197 | 17822 ft | 369 kts | 190° |
| 2026-05-01 08:10 | -22.61853 | -46.25985 | 17176 ft | 367 kts | 190° |
| 2026-05-01 08:11 | -22.66887 | -46.26768 | 16519 ft | 363 kts | 189° |
| 2026-05-01 08:11 | -22.71857 | -46.27540 | 15881 ft | 359 kts | 189° |
| 2026-05-01 08:12 | -22.76782 | -46.28316 | 15245 ft | 355 kts | 190° |
| 2026-05-01 08:12 | -22.79135 | -46.29083 | 14926 ft | 352 kts | 206° |
| 2026-05-01 08:12 | -22.83375 | -46.31645 | 14294 ft | 347 kts | 211° |
| 2026-05-01 08:13 | -22.85436 | -46.32941 | 13988 ft | 346 kts | 211° |
| 2026-05-01 08:13 | -22.87514 | -46.34240 | 13666 ft | 344 kts | 211° |
| 2026-05-01 08:13 | -22.91652 | -46.36813 | 13036 ft | 341 kts | 211° |
| 2026-05-01 08:14 | -22.93709 | -46.38090 | 12726 ft | 340 kts | 211° |
| 2026-05-01 08:14 | -22.95757 | -46.39362 | 12415 ft | 338 kts | 211° |
| 2026-05-01 08:14 | -22.97797 | -46.40629 | 12124 ft | 337 kts | 211° |
| 2026-05-01 08:14 | -22.99830 | -46.41892 | 11825 ft | 336 kts | 211° |
| 2026-05-01 08:15 | -23.01851 | -46.43148 | 11527 ft | 334 kts | 211° |
| 2026-05-01 08:15 | -23.05837 | -46.45626 | 11063 ft | 320 kts | 211° |
| 2026-05-01 08:15 | -23.07734 | -46.46806 | 10883 ft | 309 kts | 211° |
| 2026-05-01 08:16 | -23.09575 | -46.47951 | 10633 ft | 301 kts | 211° |
| 2026-05-01 08:16 | -23.11385 | -46.49077 | 10340 ft | 298 kts | 211° |
| 2026-05-01 08:16 | -23.13197 | -46.50205 | 9926 ft | 298 kts | 211° |
| 2026-05-01 08:17 | -23.14984 | -46.51319 | 9585 ft | 295 kts | 211° |
| 2026-05-01 08:17 | -23.16763 | -46.52428 | 9315 ft | 294 kts | 211° |
| 2026-05-01 08:17 | -23.18537 | -46.53533 | 9046 ft | 294 kts | 211° |
| 2026-05-01 08:17 | -23.20302 | -46.54632 | 8793 ft | 293 kts | 211° |
| 2026-05-01 08:18 | -23.22064 | -46.55755 | 8517 ft | 292 kts | 213° |
| 2026-05-01 08:18 | -23.25419 | -46.58171 | 7999 ft | 290 kts | 214° |
| 2026-05-01 08:19 | -23.28775 | -46.60583 | 7478 ft | 289 kts | 214° |
| 2026-05-01 08:19 | -23.30457 | -46.61785 | 7092 ft | 288 kts | 214° |
| 2026-05-01 08:19 | -23.31955 | -46.62852 | 6819 ft | 286 kts | 214° |
| 2026-05-01 08:19 | -23.33530 | -46.63973 | 6568 ft | 285 kts | 214° |
| 2026-05-01 08:20 | -23.35189 | -46.65153 | 6298 ft | 284 kts | 213° |
| 2026-05-01 08:20 | -23.36845 | -46.66334 | 6045 ft | 283 kts | 213° |
| 2026-05-01 08:20 | -23.38480 | -46.67501 | 5680 ft | 282 kts | 212° |
| 2026-05-01 08:20 | -23.40164 | -46.68616 | 5249 ft | 281 kts | 204° |
| 2026-05-01 08:21 | -23.42029 | -46.68990 | 4985 ft | 268 kts | 172° |
| 2026-05-01 08:21 | -23.43699 | -46.68376 | 4820 ft | 251 kts | 144° |
| 2026-05-01 08:21 | -23.44883 | -46.67099 | 4676 ft | 237 kts | 123° |
| 2026-05-01 08:21 | -23.45779 | -46.65633 | 4502 ft | 228 kts | 122° |
| 2026-05-01 08:22 | -23.46647 | -46.64219 | 4385 ft | 219 kts | 122° |
| 2026-05-01 08:22 | -23.47269 | -46.63029 | 4259 ft | 212 kts | 110° |
| 2026-05-01 08:22 | -23.47393 | -46.61455 | 4059 ft | 205 kts | 77° |
| 2026-05-01 08:22 | -23.46967 | -46.59992 | 4012 ft | 202 kts | 71° |
| 2026-05-01 08:23 | -23.46519 | -46.58541 | 3997 ft | 201 kts | 73° |
| 2026-05-01 08:23 | -23.46153 | -46.57164 | 3990 ft | 175 kts | 75° |
| 2026-05-01 08:23 | -23.45838 | -46.55972 | 3934 ft | 154 kts | 74° |
| 2026-05-01 08:23 | -23.45543 | -46.54886 | 3685 ft | 145 kts | 75° |
| 2026-05-01 08:24 | -23.45268 | -46.53863 | 3496 ft | 137 kts | 75° |
| 2026-05-01 08:24 | -23.45000 | -46.52864 | 3310 ft | 138 kts | 75° |
| 2026-05-01 08:24 | -23.44733 | -46.51871 | 3117 ft | 139 kts | 75° |
| 2026-05-01 08:24 | -23.44459 | -46.50853 | 2917 ft | 140 kts | 75° |
| 2026-05-01 08:25 | -23.44185 | -46.49834 | 2735 ft | 140 kts | 75° |
| 2026-05-01 08:25 | -23.43906 | -46.48816 | 2548 ft | 141 kts | 74° |
| 2026-05-01 08:25 | -23.43632 | -46.47818 | 2471 ft | 129 kts | 75° |
| 2026-05-01 08:25 | -23.43444 | -46.47086 | 2469 ft | 56 kts | 71° |
| 2026-05-01 08:26 | -23.43373 | -46.46938 | 2473 ft | 16 kts | 58° |
| 2026-05-01 08:26 | -23.43298 | -46.46857 | 2471 ft | 14 kts | 43° |
| 2026-05-01 08:26 | -23.43228 | -46.46785 | 2475 ft | 14 kts | 44° |
| 2026-05-01 08:26 | -23.43152 | -46.46717 | 2477 ft | 15 kts | 26° |
| 2026-05-01 08:27 | -23.43064 | -46.46718 | 2475 ft | 12 kts | 338° |
| 2026-05-01 08:27 | -23.42973 | -46.46753 | 2472 ft | 16 kts | 344° |
| 2026-05-01 08:27 | -23.42886 | -46.46781 | 2475 ft | 13 kts | 343° |
| 2026-05-01 08:27 | -23.42802 | -46.46808 | 2469 ft | 15 kts | 339° |
| 2026-05-01 08:28 | -23.42788 | -46.46926 | 2463 ft | 18 kts | 251° |
| 2026-05-01 08:28 | -23.42810 | -46.47002 | 2465 ft | 9 kts | 253° |
| 2026-05-01 08:28 | -23.42830 | -46.47081 | 2461 ft | 12 kts | 263° |
| 2026-05-01 08:28 | -23.42781 | -46.47138 | 2464 ft | 11 kts | 342° |
| 2026-05-01 08:29 | -23.42733 | -46.47168 | 2461 ft | 4 kts | 289° |
| 2026-05-01 08:29 | -23.42732 | -46.47212 | 2463 ft | 7 kts | 263° |
| 2026-05-01 08:29 | -23.42738 | -46.47235 | 2465 ft | 0 kts | 255° |
| 2026-05-01 08:29 | -23.42739 | -46.47238 | 2465 ft | 1 kts | 255° |
| 2026-05-01 08:30 | -23.42743 | -46.47253 | 2464 ft | 1 kts | 255° |
| 2026-05-01 08:30 | -23.42746 | -46.47266 | 2462 ft | 1 kts | 255° |
| 2026-05-01 08:30 | -23.42746 | -46.47269 | 2462 ft | 0 kts | 255° |